sensor_id;sensor_type;location;lat;lon;timestamp;pressure;altitude;pressure_sealevel;temperature;humidity
21357;BME280;10836;53.068;18.234;2023-11-19T00:00:20;101716.97;;;-1.98;100.00
21357;BME280;10836;53.068;18.234;2023-11-19T00:03:07;101717.81;;;-2.14;100.00
21357;BME280;10836;53.068;18.234;2023-11-19T00:05:35;101725.16;;;-2.16;100.00
21357;BME280;10836;53.068;18.234;2023-11-19T00:08:02;101719.47;;;-2.13;100.00
21357;BME280;10836;53.068;18.234;2023-11-19T00:10:29;101719.31;;;-2.20;100.00
21357;BME280;10836;53.068;18.234;2023-11-19T00:12:56;101714.28;;;-2.31;100.00
21357;BME280;10836;53.068;18.234;2023-11-19T00:15:24;101704.59;;;-2.32;100.00
21357;BME280;10836;53.068;18.234;2023-11-19T00:17:51;101701.56;;;-2.37;100.00
21357;BME280;10836;53.068;18.234;2023-11-19T00:20:20;101700.72;;;-2.38;100.00
21357;BME280;10836;53.068;18.234;2023-11-19T00:22:49;101700.59;;;-2.28;100.00
21357;BME280;10836;53.068;18.234;2023-11-19T00:25:20;101697.91;;;-2.20;100.00
21357;BME280;10836;53.068;18.234;2023-11-19T00:27:49;101699.56;;;-2.35;100.00
21357;BME280;10836;53.068;18.234;2023-11-19T00:30:18;101702.59;;;-2.30;100.00
21357;BME280;10836;53.068;18.234;2023-11-19T00:32:44;101698.41;;;-2.32;100.00
21357;BME280;10836;53.068;18.234;2023-11-19T00:35:12;101698.91;;;-2.29;100.00
21357;BME280;10836;53.068;18.234;2023-11-19T00:37:42;101692.06;;;-2.23;100.00
21357;BME280;10836;53.068;18.234;2023-11-19T00:40:10;101693.19;;;-2.42;100.00
21357;BME280;10836;53.068;18.234;2023-11-19T00:42:38;101685.50;;;-2.37;100.00
21357;BME280;10836;53.068;18.234;2023-11-19T00:45:05;101678.16;;;-2.35;100.00
21357;BME280;10836;53.068;18.234;2023-11-19T00:47:36;101674.16;;;-2.31;100.00
21357;BME280;10836;53.068;18.234;2023-11-19T00:50:03;101673.16;;;-2.38;100.00
21357;BME280;10836;53.068;18.234;2023-11-19T00:52:30;101662.47;;;-2.30;100.00
21357;BME280;10836;53.068;18.234;2023-11-19T00:54:58;101657.44;;;-2.33;100.00
21357;BME280;10836;53.068;18.234;2023-11-19T00:57:24;101648.06;;;-2.37;100.00
21357;BME280;10836;53.068;18.234;2023-11-19T00:59:53;101640.53;;;-2.42;100.00
21357;BME280;10836;53.068;18.234;2023-11-19T01:02:20;101641.22;;;-2.40;100.00
21357;BME280;10836;53.068;18.234;2023-11-19T01:04:47;101630.69;;;-2.41;100.00
21357;BME280;10836;53.068;18.234;2023-11-19T01:07:14;101631.00;;;-2.44;100.00
21357;BME280;10836;53.068;18.234;2023-11-19T01:09:42;101628.00;;;-2.49;100.00
21357;BME280;10836;53.068;18.234;2023-11-19T01:12:09;101624.97;;;-2.54;100.00
21357;BME280;10836;53.068;18.234;2023-11-19T01:14:37;101628.97;;;-2.58;100.00
21357;BME280;10836;53.068;18.234;2023-11-19T01:17:05;101626.66;;;-2.53;100.00
21357;BME280;10836;53.068;18.234;2023-11-19T01:19:33;101624.31;;;-2.56;100.00
21357;BME280;10836;53.068;18.234;2023-11-19T01:22:00;101619.13;;;-2.66;100.00
21357;BME280;10836;53.068;18.234;2023-11-19T01:24:27;101615.13;;;-2.70;100.00
21357;BME280;10836;53.068;18.234;2023-11-19T01:26:55;101609.94;;;-2.63;100.00
21357;BME280;10836;53.068;18.234;2023-11-19T01:29:24;101604.56;;;-2.80;100.00
21357;BME280;10836;53.068;18.234;2023-11-19T01:31:51;101605.56;;;-2.81;100.00
21357;BME280;10836;53.068;18.234;2023-11-19T01:34:19;101601.22;;;-2.82;100.00
21357;BME280;10836;53.068;18.234;2023-11-19T01:36:49;101608.88;;;-2.87;100.00
21357;BME280;10836;53.068;18.234;2023-11-19T01:39:16;101609.91;;;-2.80;100.00
21357;BME280;10836;53.068;18.234;2023-11-19T01:41:43;101618.59;;;-2.86;100.00
21357;BME280;10836;53.068;18.234;2023-11-19T01:44:11;101620.22;;;-2.93;100.00
21357;BME280;10836;53.068;18.234;2023-11-19T01:46:42;101608.50;;;-3.00;100.00
21357;BME280;10836;53.068;18.234;2023-11-19T01:49:10;101579.13;;;-3.00;100.00
21357;BME280;10836;53.068;18.234;2023-11-19T01:51:39;101575.59;;;-3.17;100.00
21357;BME280;10836;53.068;18.234;2023-11-19T01:54:07;101559.38;;;-3.23;100.00
21357;BME280;10836;53.068;18.234;2023-11-19T01:56:35;101559.06;;;-3.20;100.00
21357;BME280;10836;53.068;18.234;2023-11-19T01:59:04;101551.38;;;-3.15;100.00
21357;BME280;10836;53.068;18.234;2023-11-19T02:01:31;101539.03;;;-3.16;100.00
21357;BME280;10836;53.068;18.234;2023-11-19T02:04:01;101539.53;;;-3.13;100.00
21357;BME280;10836;53.068;18.234;2023-11-19T02:06:29;101535.72;;;-3.10;100.00
21357;BME280;10836;53.068;18.234;2023-11-19T02:08:57;101540.69;;;-3.15;100.00
21357;BME280;10836;53.068;18.234;2023-11-19T02:11:24;101530.69;;;-3.13;100.00
21357;BME280;10836;53.068;18.234;2023-11-19T02:13:56;101513.66;;;-3.12;100.00
21357;BME280;10836;53.068;18.234;2023-11-19T02:16:23;101514.34;;;-3.10;100.00
21357;BME280;10836;53.068;18.234;2023-11-19T02:18:51;101515.84;;;-3.08;100.00
21357;BME280;10836;53.068;18.234;2023-11-19T02:21:17;101513.34;;;-3.09;100.00
21357;BME280;10836;53.068;18.234;2023-11-19T02:23:45;101508.81;;;-3.17;100.00
21357;BME280;10836;53.068;18.234;2023-11-19T02:26:29;101509.31;;;-3.21;100.00
21357;BME280;10836;53.068;18.234;2023-11-19T02:29:00;101502.94;;;-3.28;100.00
21357;BME280;10836;53.068;18.234;2023-11-19T02:31:26;101487.94;;;-3.21;100.00
21357;BME280;10836;53.068;18.234;2023-11-19T02:33:54;101488.06;;;-3.31;100.00
21357;BME280;10836;53.068;18.234;2023-11-19T02:36:21;101479.53;;;-3.43;100.00
21357;BME280;10836;53.068;18.234;2023-11-19T02:38:49;101484.03;;;-3.43;100.00
21357;BME280;10836;53.068;18.234;2023-11-19T02:41:16;101484.06;;;-3.27;100.00
21357;BME280;10836;53.068;18.234;2023-11-19T02:43:43;101488.25;;;-3.32;100.00
21357;BME280;10836;53.068;18.234;2023-11-19T02:46:10;101471.03;;;-3.38;100.00
21357;BME280;10836;53.068;18.234;2023-11-19T02:48:40;101469.22;;;-3.29;100.00
21357;BME280;10836;53.068;18.234;2023-11-19T02:51:08;101453.88;;;-3.19;100.00
21357;BME280;10836;53.068;18.234;2023-11-19T02:53:37;101446.50;;;-3.33;100.00
21357;BME280;10836;53.068;18.234;2023-11-19T02:56:05;101439.69;;;-3.28;100.00
21357;BME280;10836;53.068;18.234;2023-11-19T02:58:38;101435.00;;;-3.34;100.00
21357;BME280;10836;53.068;18.234;2023-11-19T03:01:05;101439.50;;;-3.35;100.00
21357;BME280;10836;53.068;18.234;2023-11-19T03:03:40;101427.97;;;-3.35;100.00
21357;BME280;10836;53.068;18.234;2023-11-19T03:06:08;101420.16;;;-3.28;100.00
21357;BME280;10836;53.068;18.234;2023-11-19T03:08:38;101413.31;;;-3.23;100.00
21357;BME280;10836;53.068;18.234;2023-11-19T03:11:05;101412.16;;;-3.12;100.00
21357;BME280;10836;53.068;18.234;2023-11-19T03:13:32;101404.31;;;-3.14;100.00
21357;BME280;10836;53.068;18.234;2023-11-19T03:15:59;101410.31;;;-3.04;100.00
21357;BME280;10836;53.068;18.234;2023-11-19T03:18:27;101408.78;;;-2.98;100.00
21357;BME280;10836;53.068;18.234;2023-11-19T03:20:55;101399.75;;;-2.97;100.00
21357;BME280;10836;53.068;18.234;2023-11-19T03:23:22;101400.75;;;-2.90;100.00
21357;BME280;10836;53.068;18.234;2023-11-19T03:25:49;101396.09;;;-2.80;100.00
21357;BME280;10836;53.068;18.234;2023-11-19T03:28:16;101389.72;;;-2.79;100.00
21357;BME280;10836;53.068;18.234;2023-11-19T03:30:43;101381.69;;;-2.71;100.00
21357;BME280;10836;53.068;18.234;2023-11-19T03:33:10;101369.66;;;-2.66;100.00
21357;BME280;10836;53.068;18.234;2023-11-19T03:35:38;101351.13;;;-2.68;100.00
21357;BME280;10836;53.068;18.234;2023-11-19T03:38:05;101350.91;;;-2.58;100.00
21357;BME280;10836;53.068;18.234;2023-11-19T03:40:35;101334.03;;;-2.59;100.00
21357;BME280;10836;53.068;18.234;2023-11-19T03:43:02;101325.84;;;-2.57;100.00
21357;BME280;10836;53.068;18.234;2023-11-19T03:45:31;101330.50;;;-2.51;100.00
21357;BME280;10836;53.068;18.234;2023-11-19T03:47:58;101322.13;;;-2.48;100.00
21357;BME280;10836;53.068;18.234;2023-11-19T03:50:25;101325.16;;;-2.51;100.00
21357;BME280;10836;53.068;18.234;2023-11-19T03:52:52;101318.44;;;-2.47;100.00
21357;BME280;10836;53.068;18.234;2023-11-19T03:55:19;101310.09;;;-2.44;100.00
21357;BME280;10836;53.068;18.234;2023-11-19T03:57:47;101315.59;;;-2.46;100.00
21357;BME280;10836;53.068;18.234;2023-11-19T04:00:15;101312.38;;;-2.33;100.00
21357;BME280;10836;53.068;18.234;2023-11-19T04:02:42;101307.34;;;-2.28;100.00
21357;BME280;10836;53.068;18.234;2023-11-19T04:05:09;101301.81;;;-2.26;100.00
21357;BME280;10836;53.068;18.234;2023-11-19T04:07:37;101298.34;;;-2.35;100.00
21357;BME280;10836;53.068;18.234;2023-11-19T04:10:04;101297.50;;;-2.36;100.00
21357;BME280;10836;53.068;18.234;2023-11-19T04:12:32;101294.66;;;-2.34;100.00
21357;BME280;10836;53.068;18.234;2023-11-19T04:14:58;101297.31;;;-2.26;100.00
21357;BME280;10836;53.068;18.234;2023-11-19T04:17:28;101294.59;;;-2.18;100.00
21357;BME280;10836;53.068;18.234;2023-11-19T04:19:55;101289.22;;;-2.18;100.00
21357;BME280;10836;53.068;18.234;2023-11-19T04:22:23;101288.50;;;-2.12;100.00
21357;BME280;10836;53.068;18.234;2023-11-19T04:24:51;101282.88;;;-2.17;100.00
21357;BME280;10836;53.068;18.234;2023-11-19T04:27:18;101282.31;;;-2.12;100.00
21357;BME280;10836;53.068;18.234;2023-11-19T04:29:44;101275.91;;;-2.03;100.00
21357;BME280;10836;53.068;18.234;2023-11-19T04:32:14;101264.84;;;-2.00;100.00
21357;BME280;10836;53.068;18.234;2023-11-19T04:34:41;101259.16;;;-1.97;100.00
21357;BME280;10836;53.068;18.234;2023-11-19T04:37:08;101255.59;;;-1.89;100.00
21357;BME280;10836;53.068;18.234;2023-11-19T04:39:39;101251.59;;;-1.93;100.00
21357;BME280;10836;53.068;18.234;2023-11-19T04:42:07;101257.31;;;-1.96;100.00
21357;BME280;10836;53.068;18.234;2023-11-19T04:44:33;101247.72;;;-1.91;100.00
21357;BME280;10836;53.068;18.234;2023-11-19T04:47:01;101245.34;;;-1.86;100.00
21357;BME280;10836;53.068;18.234;2023-11-19T04:49:28;101242.84;;;-1.87;100.00
21357;BME280;10836;53.068;18.234;2023-11-19T04:51:55;101232.50;;;-1.90;100.00
21357;BME280;10836;53.068;18.234;2023-11-19T04:54:22;101226.31;;;-1.91;100.00
21357;BME280;10836;53.068;18.234;2023-11-19T04:56:49;101216.56;;;-1.84;100.00
21357;BME280;10836;53.068;18.234;2023-11-19T04:59:16;101214.72;;;-1.83;100.00
21357;BME280;10836;53.068;18.234;2023-11-19T05:01:47;101202.72;;;-1.87;100.00
21357;BME280;10836;53.068;18.234;2023-11-19T05:04:14;101196.34;;;-1.86;100.00
21357;BME280;10836;53.068;18.234;2023-11-19T05:06:42;101196.34;;;-1.86;100.00
21357;BME280;10836;53.068;18.234;2023-11-19T05:09:09;101182.53;;;-1.75;100.00
21357;BME280;10836;53.068;18.234;2023-11-19T05:11:36;101179.91;;;-1.83;100.00
21357;BME280;10836;53.068;18.234;2023-11-19T05:14:17;101186.59;;;-1.79;100.00
21357;BME280;10836;53.068;18.234;2023-11-19T05:16:46;101178.06;;;-1.83;100.00
21357;BME280;10836;53.068;18.234;2023-11-19T05:19:13;101174.84;;;-1.78;100.00
21357;BME280;10836;53.068;18.234;2023-11-19T05:21:44;101172.66;;;-1.75;100.00
21357;BME280;10836;53.068;18.234;2023-11-19T05:24:11;101166.91;;;-1.72;100.00
21357;BME280;10836;53.068;18.234;2023-11-19T05:26:41;101165.34;;;-1.66;100.00
21357;BME280;10836;53.068;18.234;2023-11-19T05:29:08;101149.19;;;-1.73;100.00
21357;BME280;10836;53.068;18.234;2023-11-19T05:31:35;101151.66;;;-1.71;100.00
21357;BME280;10836;53.068;18.234;2023-11-19T05:34:04;101137.09;;;-1.69;100.00
21357;BME280;10836;53.068;18.234;2023-11-19T05:36:31;101141.44;;;-1.68;100.00
21357;BME280;10836;53.068;18.234;2023-11-19T05:38:58;101137.44;;;-1.72;100.00
21357;BME280;10836;53.068;18.234;2023-11-19T05:41:25;101131.38;;;-1.65;100.00
21357;BME280;10836;53.068;18.234;2023-11-19T05:43:52;101144.13;;;-1.53;100.00
21357;BME280;10836;53.068;18.234;2023-11-19T05:46:19;101135.81;;;-1.58;100.00
21357;BME280;10836;53.068;18.234;2023-11-19T05:48:47;101118.72;;;-1.57;100.00
21357;BME280;10836;53.068;18.234;2023-11-19T05:51:15;101125.38;;;-1.53;100.00
21357;BME280;10836;53.068;18.234;2023-11-19T05:53:43;101125.03;;;-1.50;100.00
21357;BME280;10836;53.068;18.234;2023-11-19T05:56:10;101115.31;;;-1.51;100.00
21357;BME280;10836;53.068;18.234;2023-11-19T05:58:37;101120.13;;;-1.46;100.00
21357;BME280;10836;53.068;18.234;2023-11-19T06:01:06;101122.16;;;-1.48;100.00
21357;BME280;10836;53.068;18.234;2023-11-19T06:03:35;101116.97;;;-1.50;100.00
21357;BME280;10836;53.068;18.234;2023-11-19T06:06:02;101107.56;;;-1.46;100.00
21357;BME280;10836;53.068;18.234;2023-11-19T06:08:29;101107.94;;;-1.49;100.00
21357;BME280;10836;53.068;18.234;2023-11-19T06:10:57;101095.09;;;-1.39;100.00
21357;BME280;10836;53.068;18.234;2023-11-19T06:13:24;101097.13;;;-1.41;100.00
21357;BME280;10836;53.068;18.234;2023-11-19T06:15:52;101096.47;;;-1.43;100.00
21357;BME280;10836;53.068;18.234;2023-11-19T06:18:19;101103.13;;;-1.39;100.00
21357;BME280;10836;53.068;18.234;2023-11-19T06:20:47;101084.66;;;-1.33;100.00
21357;BME280;10836;53.068;18.234;2023-11-19T06:23:14;101078.38;;;-1.41;100.00
21357;BME280;10836;53.068;18.234;2023-11-19T06:25:42;101070.06;;;-1.46;100.00
21357;BME280;10836;53.068;18.234;2023-11-19T06:28:09;101070.72;;;-1.44;100.00
21357;BME280;10836;53.068;18.234;2023-11-19T06:30:36;101065.63;;;-1.39;100.00
21357;BME280;10836;53.068;18.234;2023-11-19T06:33:03;101062.44;;;-1.27;100.00
21357;BME280;10836;53.068;18.234;2023-11-19T06:35:31;101057.09;;;-1.27;100.00
21357;BME280;10836;53.068;18.234;2023-11-19T06:38:03;101044.72;;;-1.28;100.00
21357;BME280;10836;53.068;18.234;2023-11-19T06:40:32;101037.81;;;-1.38;100.00
21357;BME280;10836;53.068;18.234;2023-11-19T06:42:59;101022.41;;;-1.36;100.00
21357;BME280;10836;53.068;18.234;2023-11-19T06:45:26;101021.25;;;-1.26;100.00
21357;BME280;10836;53.068;18.234;2023-11-19T06:47:53;101016.41;;;-1.38;100.00
21357;BME280;10836;53.068;18.234;2023-11-19T06:50:20;101026.38;;;-1.31;100.00
21357;BME280;10836;53.068;18.234;2023-11-19T06:52:47;101016.66;;;-1.32;100.00
21357;BME280;10836;53.068;18.234;2023-11-19T06:55:15;101018.69;;;-1.35;100.00
21357;BME280;10836;53.068;18.234;2023-11-19T06:57:42;101008.44;;;-1.31;100.00
21357;BME280;10836;53.068;18.234;2023-11-19T07:00:10;101011.81;;;-1.22;100.00
21357;BME280;10836;53.068;18.234;2023-11-19T07:02:38;100998.03;;;-1.19;100.00
21357;BME280;10836;53.068;18.234;2023-11-19T07:05:06;100991.66;;;-1.18;100.00
21357;BME280;10836;53.068;18.234;2023-11-19T07:07:35;100988.72;;;-1.23;100.00
21357;BME280;10836;53.068;18.234;2023-11-19T07:10:03;100985.94;;;-1.15;100.00
21357;BME280;10836;53.068;18.234;2023-11-19T07:12:31;100988.41;;;-1.14;100.00
21357;BME280;10836;53.068;18.234;2023-11-19T07:14:58;100976.88;;;-1.14;100.00
21357;BME280;10836;53.068;18.234;2023-11-19T07:17:25;100964.09;;;-1.12;100.00
21357;BME280;10836;53.068;18.234;2023-11-19T07:19:52;100968.34;;;-1.03;100.00
21357;BME280;10836;53.068;18.234;2023-11-19T07:22:19;100961.69;;;-1.07;100.00
21357;BME280;10836;53.068;18.234;2023-11-19T07:24:47;100961.31;;;-1.04;100.00
21357;BME280;10836;53.068;18.234;2023-11-19T07:27:13;100960.16;;;-0.95;100.00
21357;BME280;10836;53.068;18.234;2023-11-19T07:29:43;100953.03;;;-0.88;100.00
21357;BME280;10836;53.068;18.234;2023-11-19T07:32:10;100950.28;;;-0.94;100.00
21357;BME280;10836;53.068;18.234;2023-11-19T07:34:38;100954.81;;;-0.95;100.00
21357;BME280;10836;53.068;18.234;2023-11-19T07:37:05;100947.34;;;-0.99;100.00
21357;BME280;10836;53.068;18.234;2023-11-19T07:39:32;100942.06;;;-0.86;100.00
21357;BME280;10836;53.068;18.234;2023-11-19T07:41:59;100933.84;;;-0.85;100.00
21357;BME280;10836;53.068;18.234;2023-11-19T07:44:27;100931.56;;;-0.88;100.00
21357;BME280;10836;53.068;18.234;2023-11-19T07:46:53;100930.13;;;-0.84;100.00
21357;BME280;10836;53.068;18.234;2023-11-19T07:49:21;100927.69;;;-0.79;100.00
21357;BME280;10836;53.068;18.234;2023-11-19T07:51:47;100926.03;;;-0.80;100.00
21357;BME280;10836;53.068;18.234;2023-11-19T07:54:15;100926.03;;;-0.80;100.00
21357;BME280;10836;53.068;18.234;2023-11-19T07:56:41;100923.56;;;-0.81;100.00
21357;BME280;10836;53.068;18.234;2023-11-19T07:59:09;100918.00;;;-0.80;100.00
21357;BME280;10836;53.068;18.234;2023-11-19T08:01:35;100912.00;;;-0.82;100.00
21357;BME280;10836;53.068;18.234;2023-11-19T08:04:03;100897.19;;;-0.78;100.00
21357;BME280;10836;53.068;18.234;2023-11-19T08:06:30;100903.38;;;-0.77;100.00
21357;BME280;10836;53.068;18.234;2023-11-19T08:08:57;100906.69;;;-0.75;100.00
21357;BME280;10836;53.068;18.234;2023-11-19T08:11:24;100895.84;;;-0.67;100.00
21357;BME280;10836;53.068;18.234;2023-11-19T08:13:51;100897.69;;;-0.68;100.00
21357;BME280;10836;53.068;18.234;2023-11-19T08:16:18;100882.47;;;-0.60;100.00
21357;BME280;10836;53.068;18.234;2023-11-19T08:18:45;100881.22;;;-0.64;100.00
21357;BME280;10836;53.068;18.234;2023-11-19T08:21:12;100875.84;;;-0.64;100.00
21357;BME280;10836;53.068;18.234;2023-11-19T08:23:40;100867.00;;;-0.58;100.00
21357;BME280;10836;53.068;18.234;2023-11-19T08:26:07;100855.25;;;-0.57;100.00
21357;BME280;10836;53.068;18.234;2023-11-19T08:28:34;100861.44;;;-0.57;100.00
21357;BME280;10836;53.068;18.234;2023-11-19T08:31:02;100857.78;;;-0.49;100.00
21357;BME280;10836;53.068;18.234;2023-11-19T08:33:32;100854.44;;;-0.58;100.00
21357;BME280;10836;53.068;18.234;2023-11-19T08:35:59;100851.56;;;-0.56;100.00
21357;BME280;10836;53.068;18.234;2023-11-19T08:38:26;100842.69;;;-0.57;100.00
21357;BME280;10836;53.068;18.234;2023-11-19T08:40:56;100842.72;;;-0.50;100.00
21357;BME280;10836;53.068;18.234;2023-11-19T08:43:27;100840.81;;;-0.56;100.00
21357;BME280;10836;53.068;18.234;2023-11-19T08:45:54;100835.47;;;-0.56;100.00
21357;BME280;10836;53.068;18.234;2023-11-19T08:48:21;100832.38;;;-0.53;100.00
21357;BME280;10836;53.068;18.234;2023-11-19T08:50:48;100829.31;;;-0.50;100.00
21357;BME280;10836;53.068;18.234;2023-11-19T08:53:15;100824.38;;;-0.40;100.00
21357;BME280;10836;53.068;18.234;2023-11-19T08:55:42;100817.78;;;-0.44;100.00
21357;BME280;10836;53.068;18.234;2023-11-19T08:58:10;100809.47;;;-0.56;100.00
21357;BME280;10836;53.068;18.234;2023-11-19T09:00:37;100802.53;;;-0.44;100.00
21357;BME280;10836;53.068;18.234;2023-11-19T09:03:04;100811.38;;;-0.43;100.00
21357;BME280;10836;53.068;18.234;2023-11-19T09:05:31;100795.69;;;-0.46;100.00
21357;BME280;10836;53.068;18.234;2023-11-19T09:07:58;100784.78;;;-0.38;100.00
21357;BME280;10836;53.068;18.234;2023-11-19T09:10:25;100791.78;;;-0.37;100.00
21357;BME280;10836;53.068;18.234;2023-11-19T09:12:53;100778.16;;;-0.42;100.00
21357;BME280;10836;53.068;18.234;2023-11-19T09:15:24;100776.56;;;-0.30;100.00
21357;BME280;10836;53.068;18.234;2023-11-19T09:17:51;100767.47;;;-0.29;100.00
21357;BME280;10836;53.068;18.234;2023-11-19T09:20:18;100770.38;;;-0.24;100.00
21357;BME280;10836;53.068;18.234;2023-11-19T09:22:45;100768.78;;;-0.12;100.00
21357;BME280;10836;53.068;18.234;2023-11-19T09:25:12;100772.44;;;-0.26;100.00
21357;BME280;10836;53.068;18.234;2023-11-19T09:27:44;100767.09;;;-0.19;100.00
21357;BME280;10836;53.068;18.234;2023-11-19T09:30:11;100758.41;;;-0.28;100.00
21357;BME280;10836;53.068;18.234;2023-11-19T09:32:39;100757.19;;;-0.25;100.00
21357;BME280;10836;53.068;18.234;2023-11-19T09:35:07;100746.06;;;-0.16;100.00
21357;BME280;10836;53.068;18.234;2023-11-19T09:37:35;100731.78;;;-0.23;100.00
21357;BME280;10836;53.068;18.234;2023-11-19T09:40:02;100718.00;;;-0.07;100.00
21357;BME280;10836;53.068;18.234;2023-11-19T09:42:32;100716.34;;;-0.08;100.00
21357;BME280;10836;53.068;18.234;2023-11-19T09:45:07;100703.97;;;-0.09;100.00
21357;BME280;10836;53.068;18.234;2023-11-19T09:47:40;100705.41;;;0.00;100.00
21357;BME280;10836;53.068;18.234;2023-11-19T09:50:08;100681.47;;;-0.08;100.00
21357;BME280;10836;53.068;18.234;2023-11-19T09:52:36;100675.88;;;0.00;100.00
21357;BME280;10836;53.068;18.234;2023-11-19T09:55:03;100673.81;;;0.03;100.00
21357;BME280;10836;53.068;18.234;2023-11-19T09:57:32;100662.66;;;0.06;100.00
21357;BME280;10836;53.068;18.234;2023-11-19T09:59:59;100668.84;;;0.06;100.00
21357;BME280;10836;53.068;18.234;2023-11-19T10:02:28;100668.44;;;0.03;100.00
21357;BME280;10836;53.068;18.234;2023-11-19T10:04:59;100662.25;;;0.02;100.00
21357;BME280;10836;53.068;18.234;2023-11-19T10:07:29;100658.72;;;0.02;100.00
21357;BME280;10836;53.068;18.234;2023-11-19T10:09:56;100655.22;;;0.01;100.00
21357;BME280;10836;53.068;18.234;2023-11-19T10:12:24;100654.81;;;0.11;100.00
21357;BME280;10836;53.068;18.234;2023-11-19T10:14:51;100639.53;;;0.05;100.00
21357;BME280;10836;53.068;18.234;2023-11-19T10:17:19;100619.50;;;0.14;100.00
21357;BME280;10836;53.068;18.234;2023-11-19T10:19:45;100604.84;;;0.10;100.00
21357;BME280;10836;53.068;18.234;2023-11-19T10:22:13;100608.13;;;0.05;100.00
21357;BME280;10836;53.068;18.234;2023-11-19T10:24:43;100602.81;;;-0.02;100.00
21357;BME280;10836;53.068;18.234;2023-11-19T10:27:15;100599.06;;;0.13;100.00
21357;BME280;10836;53.068;18.234;2023-11-19T10:29:46;100597.81;;;0.09;100.00
21357;BME280;10836;53.068;18.234;2023-11-19T10:32:14;100607.09;;;0.06;100.00
21357;BME280;10836;53.068;18.234;2023-11-19T10:35:04;100602.34;;;0.15;100.00
21357;BME280;10836;53.068;18.234;2023-11-19T10:37:32;100601.94;;;0.18;100.00
21357;BME280;10836;53.068;18.234;2023-11-19T10:40:00;100595.34;;;0.14;100.00
21357;BME280;10836;53.068;18.234;2023-11-19T10:42:27;100600.28;;;0.17;100.00
21357;BME280;10836;53.068;18.234;2023-11-19T10:44:54;100590.38;;;0.24;100.00
21357;BME280;10836;53.068;18.234;2023-11-19T10:47:22;100589.75;;;0.15;100.00
21357;BME280;10836;53.068;18.234;2023-11-19T10:49:52;100594.91;;;0.17;100.00
21357;BME280;10836;53.068;18.234;2023-11-19T10:52:19;100586.66;;;0.18;100.00
21357;BME280;10836;53.068;18.234;2023-11-19T10:54:50;100580.47;;;0.18;100.00
21357;BME280;10836;53.068;18.234;2023-11-19T10:57:21;100581.69;;;0.22;100.00
21357;BME280;10836;53.068;18.234;2023-11-19T10:59:52;100571.38;;;0.19;100.00
21357;BME280;10836;53.068;18.234;2023-11-19T11:02:21;100571.78;;;0.03;100.00
21357;BME280;10836;53.068;18.234;2023-11-19T11:04:51;100573.25;;;0.05;100.00
21357;BME280;10836;53.068;18.234;2023-11-19T11:07:21;100568.94;;;-0.09;100.00
21357;BME280;10836;53.068;18.234;2023-11-19T11:10:02;100565.44;;;-0.10;100.00
21357;BME280;10836;53.068;18.234;2023-11-19T11:12:36;100561.50;;;-0.01;100.00
21357;BME280;10836;53.068;18.234;2023-11-19T11:15:05;100552.63;;;-0.08;100.00
21357;BME280;10836;53.068;18.234;2023-11-19T11:17:33;100546.63;;;-0.23;100.00
21357;BME280;10836;53.068;18.234;2023-11-19T11:20:01;100552.41;;;-0.26;100.00
21357;BME280;10836;53.068;18.234;2023-11-19T11:22:40;100543.94;;;-0.23;100.00
21357;BME280;10836;53.068;18.234;2023-11-19T11:25:53;100537.56;;;-0.22;100.00
21357;BME280;10836;53.068;18.234;2023-11-19T11:28:32;100524.34;;;-0.17;100.00
21357;BME280;10836;53.068;18.234;2023-11-19T11:33:55;100522.69;;;-0.31;100.00
21357;BME280;10836;53.068;18.234;2023-11-19T11:36:31;100517.31;;;-0.31;100.00
21357;BME280;10836;53.068;18.234;2023-11-19T11:39:03;100506.59;;;-0.38;100.00
21357;BME280;10836;53.068;18.234;2023-11-19T11:41:34;100509.91;;;-0.36;100.00
21357;BME280;10836;53.068;18.234;2023-11-19T11:44:01;100496.06;;;-0.39;100.00
21357;BME280;10836;53.068;18.234;2023-11-19T11:49:06;100475.63;;;-0.40;100.00
21357;BME280;10836;53.068;18.234;2023-11-19T11:57:02;100460.41;;;-0.46;100.00
21357;BME280;10836;53.068;18.234;2023-11-19T11:59:51;100457.91;;;-0.54;100.00
21357;BME280;10836;53.068;18.234;2023-11-19T12:02:20;100456.25;;;-0.42;100.00
21357;BME280;10836;53.068;18.234;2023-11-19T12:04:50;100453.78;;;-0.50;100.00
21357;BME280;10836;53.068;18.234;2023-11-19T12:07:23;100446.38;;;-0.48;100.00
21357;BME280;10836;53.068;18.234;2023-11-19T12:10:06;100434.00;;;-0.56;100.00
21357;BME280;10836;53.068;18.234;2023-11-19T12:12:39;100432.13;;;-0.55;100.00
21357;BME280;10836;53.068;18.234;2023-11-19T12:15:09;100431.09;;;-0.48;100.00
21357;BME280;10836;53.068;18.234;2023-11-19T12:17:38;100419.13;;;-0.45;100.00
21357;BME280;10836;53.068;18.234;2023-11-19T12:20:08;100420.78;;;-0.44;100.00
21357;BME280;10836;53.068;18.234;2023-11-19T12:22:37;100416.25;;;-0.50;100.00
21357;BME280;10836;53.068;18.234;2023-11-19T12:25:06;100415.41;;;-0.51;100.00
21357;BME280;10836;53.068;18.234;2023-11-19T12:27:33;100410.06;;;-0.57;100.00
21357;BME280;10836;53.068;18.234;2023-11-19T12:30:03;100395.22;;;-0.53;100.00
21357;BME280;10836;53.068;18.234;2023-11-19T12:32:45;100385.91;;;-0.51;100.00
21357;BME280;10836;53.068;18.234;2023-11-19T12:35:12;100371.50;;;-0.56;100.00
21357;BME280;10836;53.068;18.234;2023-11-19T12:37:41;100358.91;;;-0.56;100.00
21357;BME280;10836;53.068;18.234;2023-11-19T12:40:19;100370.84;;;-0.45;100.00
21357;BME280;10836;53.068;18.234;2023-11-19T12:42:50;100375.41;;;-0.52;100.00
21357;BME280;10836;53.068;18.234;2023-11-19T12:45:17;100385.09;;;-0.51;100.00
21357;BME280;10836;53.068;18.234;2023-11-19T12:47:47;100368.78;;;-0.50;100.00